Time;durP1;ratioP1;P1;durP2;ratioP2;P2;SDS_P1;SDS_P2;PMS_P1;PMS_P2;Temp;Humidity;BMP_temperature;BMP_pressure;BME280_temperature;BME280_humidity;BME280_pressure;Samples;Min_cycle;Max_cycle;Signal;HPM_P1;HPM_P2
2022/09/29 00:00:36;;;;;;;5.70;5.10;;;;;;;;;;6331675;22;20744;-83
2022/09/29 00:03:03;;;;;;;5.90;5.05;;;;;;;;;;6304788;22;20015;-86
2022/09/29 00:05:29;;;;;;;6.28;5.68;;;;;;;;;;6304043;22;20025;-87
2022/09/29 00:07:55;;;;;;;8.52;5.30;;;;;;;;;;6333311;22;20042;-84
2022/09/29 00:10:22;;;;;;;8.20;5.20;;;;;;;;;;6334218;22;20084;-83
2022/09/29 00:12:48;;;;;;;5.75;5.22;;;;;;;;;;6306106;22;20015;-86
2022/09/29 00:15:14;;;;;;;6.38;5.78;;;;;;;;;;6333275;22;20022;-86
2022/09/29 00:17:40;;;;;;;8.63;5.85;;;;;;;;;;6333867;22;20111;-85
2022/09/29 00:20:07;;;;;;;6.75;5.55;;;;;;;;;;6334787;22;20034;-83
2022/09/29 00:22:34;;;;;;;5.80;5.28;;;;;;;;;;6332923;22;20025;-85
2022/09/29 00:25:00;;;;;;;5.47;4.97;;;;;;;;;;6333915;22;20014;-86
2022/09/29 00:27:26;;;;;;;5.53;5.03;;;;;;;;;;6308785;22;20019;-88
2022/09/29 00:29:52;;;;;;;5.82;5.28;;;;;;;;;;6283519;22;20025;-85
2022/09/29 00:32:18;;;;;;;6.50;5.85;;;;;;;;;;6337534;22;20025;-86
2022/09/29 00:34:44;;;;;;;5.95;5.35;;;;;;;;;;6336767;22;20045;-85
2022/09/29 00:37:10;;;;;;;5.82;5.32;;;;;;;;;;6337096;22;20029;-86
2022/09/29 00:39:36;;;;;;;6.63;5.97;;;;;;;;;;6335871;22;20019;-85
2022/09/29 00:42:02;;;;;;;6.20;5.65;;;;;;;;;;6335158;22;20117;-84
2022/09/29 00:44:47;;;;;;;12.98;5.72;;;;;;;;;;6305707;22;20027;-85
2022/09/29 00:47:15;;;;;;;6.40;5.80;;;;;;;;;;6308010;22;21100;-86
2022/09/29 00:49:46;;;;;;;6.60;5.65;;;;;;;;;;6306858;22;20072;-85
2022/09/29 00:52:20;;;;;;;9.48;6.13;;;;;;;;;;6333115;22;20019;-86
2022/09/29 00:54:51;;;;;;;11.15;5.70;;;;;;;;;;6306573;22;20516;-85
2022/09/29 00:57:18;;;;;;;6.82;4.82;;;;;;;;;;6332145;22;20102;-85
2022/09/29 00:59:50;;;;;;;6.05;4.93;;;;;;;;;;6331670;22;20535;-83
2022/09/29 01:02:17;;;;;;;6.57;5.50;;;;;;;;;;6329856;22;20359;-83
2022/09/29 01:04:44;;;;;;;7.95;6.15;;;;;;;;;;6333065;22;20386;-85
2022/09/29 01:07:10;;;;;;;8.10;5.55;;;;;;;;;;6330267;22;20101;-84
2022/09/29 01:09:38;;;;;;;6.63;6.03;;;;;;;;;;6330426;22;20019;-84
2022/09/29 01:12:05;;;;;;;6.03;5.32;;;;;;;;;;6330972;22;20484;-85
2022/09/29 01:14:32;;;;;;;7.75;6.47;;;;;;;;;;6300679;22;20395;-82
2022/09/29 01:16:58;;;;;;;10.68;7.40;;;;;;;;;;6331558;22;20018;-86
2022/09/29 01:19:34;;;;;;;7.78;7.07;;;;;;;;;;6329807;22;20022;-85
2022/09/29 01:22:05;;;;;;;9.23;6.75;;;;;;;;;;6330943;22;20283;-85
2022/09/29 01:24:31;;;;;;;8.68;6.40;;;;;;;;;;6330153;22;20339;-85
2022/09/29 01:27:03;;;;;;;8.25;6.72;;;;;;;;;;6329965;22;20019;-83
2022/09/29 01:29:48;;;;;;;8.05;7.25;;;;;;;;;;6303937;22;20022;-85
2022/09/29 01:32:33;;;;;;;6.90;6.00;;;;;;;;;;6301600;22;20021;-85
2022/09/29 01:35:20;;;;;;;7.65;6.95;;;;;;;;;;6332416;22;20028;-83
2022/09/29 01:37:55;;;;;;;6.65;6.05;;;;;;;;;;6331064;22;20042;-86
2022/09/29 01:40:40;;;;;;;6.22;5.45;;;;;;;;;;6302476;22;20048;-85
2022/09/29 01:43:06;;;;;;;6.22;5.63;;;;;;;;;;6306157;22;20014;-83
2022/09/29 01:45:33;;;;;;;6.60;6.00;;;;;;;;;;6331668;22;20071;-85
2022/09/29 01:48:07;;;;;;;6.57;5.95;;;;;;;;;;6305872;22;20519;-85
2022/09/29 01:50:39;;;;;;;7.07;6.28;;;;;;;;;;6333710;22;20044;-84
2022/09/29 01:53:10;;;;;;;7.07;6.40;;;;;;;;;;6331142;22;20038;-85
2022/09/29 01:55:40;;;;;;;6.50;5.90;;;;;;;;;;6307234;22;20014;-85
2022/09/29 01:58:08;;;;;;;8.77;7.95;;;;;;;;;;6343798;22;20026;-85
2022/09/29 02:00:37;;;;;;;8.00;7.30;;;;;;;;;;6348553;22;20025;-84
2022/09/29 02:03:15;;;;;;;8.10;7.30;;;;;;;;;;6311993;22;20015;-85
2022/09/29 02:05:51;;;;;;;8.25;7.45;;;;;;;;;;6304427;22;20105;-86
2022/09/29 02:08:34;;;;;;;14.20;7.65;;;;;;;;;;6330800;22;20018;-86
2022/09/29 02:11:05;;;;;;;35.20;8.05;;;;;;;;;;6332232;22;20015;-84
2022/09/29 02:13:33;;;;;;;116.47;9.98;;;;;;;;;;6305488;22;20030;-86
2022/09/29 02:16:00;;;;;;;53.72;7.35;;;;;;;;;;6334185;22;20019;-86
2022/09/29 02:18:30;;;;;;;77.07;7.13;;;;;;;;;;6335449;22;20083;-86
2022/09/29 02:20:56;;;;;;;39.97;5.78;;;;;;;;;;6306599;22;20022;-84
2022/09/29 02:23:22;;;;;;;14.52;5.30;;;;;;;;;;6333023;22;20021;-86
2022/09/29 02:25:49;;;;;;;36.47;6.03;;;;;;;;;;6335342;22;20022;-84
2022/09/29 02:28:16;;;;;;;21.33;6.20;;;;;;;;;;6335379;22;20023;-85
2022/09/29 02:30:42;;;;;;;53.63;7.50;;;;;;;;;;6282026;22;20022;-85
2022/09/29 02:33:19;;;;;;;43.65;7.97;;;;;;;;;;6304326;22;20026;-84
2022/09/29 02:35:50;;;;;;;42.47;8.15;;;;;;;;;;6306218;22;20088;-86
2022/09/29 02:38:43;;;;;;;83.20;7.90;;;;;;;;;;6304184;22;20046;-84
2022/09/29 02:41:23;;;;;;;82.85;7.65;;;;;;;;;;6273636;22;20015;-85
2022/09/29 02:43:55;;;;;;;63.60;8.13;;;;;;;;;;6305907;22;20105;-84
2022/09/29 02:46:40;;;;;;;110.28;8.07;;;;;;;;;;6332153;22;20101;-85
2022/09/29 02:49:28;;;;;;;196.07;11.48;;;;;;;;;;6331693;22;20018;-85
2022/09/29 02:52:00;;;;;;;198.23;10.65;;;;;;;;;;6302846;22;20023;-84
2022/09/29 02:54:29;;;;;;;247.10;12.60;;;;;;;;;;6303339;22;20025;-84
2022/09/29 02:57:16;;;;;;;273.77;10.75;;;;;;;;;;6332236;22;20093;-85
2022/09/29 03:00:07;;;;;;;149.82;8.68;;;;;;;;;;6281254;22;20594;-86
2022/09/29 03:02:33;;;;;;;163.85;7.97;;;;;;;;;;6334156;22;20015;-86
2022/09/29 03:04:59;;;;;;;208.93;8.52;;;;;;;;;;6308269;22;20019;-84
2022/09/29 03:07:25;;;;;;;112.43;7.72;;;;;;;;;;6304998;22;20026;-86
2022/09/29 03:09:51;;;;;;;25.30;7.00;;;;;;;;;;6305413;22;20015;-84
2022/09/29 03:12:17;;;;;;;20.13;8.02;;;;;;;;;;6330976;22;20412;-85
2022/09/29 03:14:44;;;;;;;38.65;8.82;;;;;;;;;;6333769;22;20054;-85
2022/09/29 03:17:10;;;;;;;121.05;11.40;;;;;;;;;;6331698;22;20022;-84
2022/09/29 03:19:36;;;;;;;131.15;10.38;;;;;;;;;;6333928;22;20058;-85
2022/09/29 03:22:03;;;;;;;157.35;12.50;;;;;;;;;;6332200;22;20329;-84
2022/09/29 03:24:30;;;;;;;171.75;11.77;;;;;;;;;;6279209;22;20035;-85
2022/09/29 03:26:56;;;;;;;348.42;12.48;;;;;;;;;;6331763;22;20026;-86
2022/09/29 03:29:22;;;;;;;385.25;12.45;;;;;;;;;;6306640;22;20022;-86
2022/09/29 03:31:48;;;;;;;148.30;9.35;;;;;;;;;;6307492;22;20068;-85
2022/09/29 03:34:15;;;;;;;256.05;13.98;;;;;;;;;;6279936;22;20019;-86
2022/09/29 03:36:41;;;;;;;104.68;8.70;;;;;;;;;;6335828;22;20032;-84
2022/09/29 03:39:27;;;;;;;137.73;10.38;;;;;;;;;;6331832;22;20057;-85
2022/09/29 03:41:53;;;;;;;243.43;12.45;;;;;;;;;;6305861;22;20385;-85
2022/09/29 03:44:19;;;;;;;459.83;15.68;;;;;;;;;;6332806;22;20147;-85
2022/09/29 03:46:46;;;;;;;337.35;18.65;;;;;;;;;;6333836;22;20040;-85
2022/09/29 03:49:13;;;;;;;172.27;10.57;;;;;;;;;;6305951;22;20015;-85
2022/09/29 03:51:40;;;;;;;123.88;11.45;;;;;;;;;;6332546;22;20019;-83
2022/09/29 03:54:06;;;;;;;121.43;11.35;;;;;;;;;;6305629;22;20022;-84
2022/09/29 03:56:38;;;;;;;91.30;11.93;;;;;;;;;;6328790;22;20014;-85
2022/09/29 03:59:07;;;;;;;93.50;10.75;;;;;;;;;;6333391;22;20015;-84
2022/09/29 04:01:33;;;;;;;44.75;9.60;;;;;;;;;;6330606;22;20015;-83
2022/09/29 04:04:00;;;;;;;17.25;8.63;;;;;;;;;;6302561;22;20026;-85
2022/09/29 04:06:26;;;;;;;31.17;7.82;;;;;;;;;;6330206;22;20018;-82
2022/09/29 04:08:52;;;;;;;115.90;10.43;;;;;;;;;;6330097;22;20042;-83
2022/09/29 04:11:18;;;;;;;354.13;14.27;;;;;;;;;;6301132;22;20479;-85
2022/09/29 04:13:44;;;;;;;474.40;16.42;;;;;;;;;;6302437;22;20324;-84
2022/09/29 04:16:10;;;;;;;245.15;11.65;;;;;;;;;;6335094;22;20747;-85
2022/09/29 04:18:36;;;;;;;370.55;16.92;;;;;;;;;;6313978;22;20077;-84
2022/09/29 04:21:06;;;;;;;135.82;9.73;;;;;;;;;;6348982;22;20094;-85
2022/09/29 04:23:32;;;;;;;200.32;12.80;;;;;;;;;;6320261;22;20029;-86
2022/09/29 04:26:00;;;;;;;414.48;15.65;;;;;;;;;;6332483;22;20697;-85
2022/09/29 04:28:27;;;;;;;311.17;15.70;;;;;;;;;;6334538;22;20026;-84
2022/09/29 04:30:53;;;;;;;170.18;11.75;;;;;;;;;;6330832;22;20018;-84
2022/09/29 04:33:19;;;;;;;110.90;11.77;;;;;;;;;;6332537;22;20443;-84
2022/09/29 04:35:45;;;;;;;186.98;16.05;;;;;;;;;;6329091;22;20036;-83
2022/09/29 04:38:12;;;;;;;89.40;14.07;;;;;;;;;;6331951;22;20014;-83
2022/09/29 04:40:38;;;;;;;121.50;16.83;;;;;;;;;;6331095;22;20479;-82
2022/09/29 04:43:04;;;;;;;77.85;15.50;;;;;;;;;;6302504;22;20364;-83
2022/09/29 04:45:30;;;;;;;46.63;14.75;;;;;;;;;;6328334;22;20854;-84
2022/09/29 04:47:57;;;;;;;71.10;16.50;;;;;;;;;;6300414;22;20050;-84
2022/09/29 04:50:23;;;;;;;62.00;16.00;;;;;;;;;;6274182;22;20050;-86
2022/09/29 04:52:49;;;;;;;38.05;15.30;;;;;;;;;;6300659;22;20011;-85
2022/09/29 04:55:15;;;;;;;65.47;14.38;;;;;;;;;;6330338;22;20015;-84
2022/09/29 04:57:43;;;;;;;52.63;14.93;;;;;;;;;;6329432;22;20023;-84
2022/09/29 05:00:09;;;;;;;30.50;13.02;;;;;;;;;;6302084;22;20688;-84
2022/09/29 05:02:35;;;;;;;33.40;13.73;;;;;;;;;;6302066;22;20366;-87
2022/09/29 05:05:01;;;;;;;54.05;14.75;;;;;;;;;;6332558;22;20022;-84
2022/09/29 05:07:27;;;;;;;67.85;14.63;;;;;;;;;;6330093;22;20019;-85
2022/09/29 05:09:53;;;;;;;80.32;13.70;;;;;;;;;;6329324;22;20019;-85
2022/09/29 05:12:20;;;;;;;78.53;13.32;;;;;;;;;;6327327;22;20019;-85
2022/09/29 05:14:47;;;;;;;52.60;13.80;;;;;;;;;;6299350;22;20053;-84
2022/09/29 05:17:13;;;;;;;105.53;15.70;;;;;;;;;;6300374;22;20109;-87
2022/09/29 05:19:39;;;;;;;49.75;15.38;;;;;;;;;;6274467;22;20029;-84
2022/09/29 05:22:11;;;;;;;75.80;14.77;;;;;;;;;;6331729;22;20015;-86
2022/09/29 05:25:00;;;;;;;33.60;14.57;;;;;;;;;;6255403;22;1126759;-86
2022/09/29 05:27:25;;;;;;;66.03;14.93;;;;;;;;;;6332439;22;20018;-85
2022/09/29 05:29:57;;;;;;;62.00;13.73;;;;;;;;;;6298321;22;20026;-85
2022/09/29 05:32:23;;;;;;;60.88;12.85;;;;;;;;;;6301306;22;20134;-84
2022/09/29 05:34:49;;;;;;;97.18;14.07;;;;;;;;;;6272819;22;20018;-84
2022/09/29 05:37:23;;;;;;;66.95;14.10;;;;;;;;;;6274366;22;20099;-85
2022/09/29 05:39:49;;;;;;;88.45;13.38;;;;;;;;;;6296617;22;20463;-86
2022/09/29 05:42:15;;;;;;;43.60;13.00;;;;;;;;;;6274881;22;20022;-85
2022/09/29 05:44:41;;;;;;;20.02;13.13;;;;;;;;;;6325081;22;20015;-84
2022/09/29 05:47:13;;;;;;;49.35;14.98;;;;;;;;;;6328286;22;20019;-85
2022/09/29 05:49:40;;;;;;;36.92;14.60;;;;;;;;;;6324316;22;20064;-83
2022/09/29 05:52:06;;;;;;;27.73;13.52;;;;;;;;;;6325887;22;20019;-87
2022/09/29 05:54:38;;;;;;;43.58;13.82;;;;;;;;;;6296367;22;20359;-84
2022/09/29 05:57:05;;;;;;;26.90;13.23;;;;;;;;;;6325322;22;20023;-84
2022/09/29 05:59:31;;;;;;;15.63;13.30;;;;;;;;;;6297215;22;20026;-85
2022/09/29 06:01:57;;;;;;;31.60;14.30;;;;;;;;;;6326028;22;20042;-84
2022/09/29 06:04:23;;;;;;;24.05;13.70;;;;;;;;;;6297317;22;20015;-84
2022/09/29 06:06:49;;;;;;;33.20;14.48;;;;;;;;;;6325256;22;20023;-84
2022/09/29 06:09:15;;;;;;;16.02;12.32;;;;;;;;;;6325202;22;20064;-84
2022/09/29 06:11:41;;;;;;;39.60;13.07;;;;;;;;;;6272166;22;20022;-86
2022/09/29 06:14:13;;;;;;;29.92;13.85;;;;;;;;;;6326791;22;20026;-85
2022/09/29 06:16:40;;;;;;;17.77;13.57;;;;;;;;;;6329956;22;20046;-84
2022/09/29 06:19:06;;;;;;;20.10;14.00;;;;;;;;;;6299120;22;20422;-85
2022/09/29 06:21:34;;;;;;;21.13;13.60;;;;;;;;;;6298358;22;20456;-85
2022/09/29 06:24:00;;;;;;;18.98;12.02;;;;;;;;;;6327961;22;20022;-84
2022/09/29 06:26:26;;;;;;;16.58;13.75;;;;;;;;;;6326946;22;20019;-84
2022/09/29 06:28:53;;;;;;;17.08;14.32;;;;;;;;;;6332096;22;20053;-85
2022/09/29 06:31:20;;;;;;;15.20;13.13;;;;;;;;;;6251295;22;20072;-84
2022/09/29 06:33:47;;;;;;;15.40;13.52;;;;;;;;;;6330765;22;20015;-85
2022/09/29 06:39:10;;;;;;;15.20;13.27;;;;;;;;;;6310062;22;20041;-84
2022/09/29 06:42:25;;;;;;;16.73;14.93;;;;;;;;;;6313143;22;20092;-84
2022/09/29 06:44:35;;;;;;;16.02;14.35;;;;;;;;;;6296765;22;20014;-85
2022/09/29 06:47:01;;;;;;;17.65;14.77;;;;;;;;;;6302483;22;20097;-84
2022/09/29 06:49:27;;;;;;;16.17;14.43;;;;;;;;;;6328561;22;20450;-84
2022/09/29 06:51:53;;;;;;;18.73;15.48;;;;;;;;;;6328550;22;20571;-85
2022/09/29 06:54:21;;;;;;;17.73;15.73;;;;;;;;;;6300323;22;20037;-85
2022/09/29 06:56:50;;;;;;;17.35;14.70;;;;;;;;;;6327568;22;20015;-84
2022/09/29 06:59:16;;;;;;;25.67;17.25;;;;;;;;;;6328816;22;20035;-86
2022/09/29 07:01:42;;;;;;;18.85;16.80;;;;;;;;;;6326579;22;20018;-85
2022/09/29 07:04:15;;;;;;;19.95;17.10;;;;;;;;;;6328464;22;20099;-84
2022/09/29 07:06:41;;;;;;;23.13;16.48;;;;;;;;;;6299966;22;20528;-84
2022/09/29 07:09:14;;;;;;;27.20;18.40;;;;;;;;;;6300162;22;20026;-85
2022/09/29 07:11:40;;;;;;;44.22;21.95;;;;;;;;;;6328872;22;20028;-87
2022/09/29 07:14:06;;;;;;;36.47;21.77;;;;;;;;;;6299296;22;20465;-85
2022/09/29 07:16:32;;;;;;;53.13;22.23;;;;;;;;;;6328931;22;20844;-85
2022/09/29 07:19:01;;;;;;;47.60;22.25;;;;;;;;;;6326978;22;20104;-86
2022/09/29 07:21:27;;;;;;;44.40;23.77;;;;;;;;;;6301127;22;20881;-85
2022/09/29 07:23:53;;;;;;;42.13;23.42;;;;;;;;;;6326759;22;20038;-85
2022/09/29 07:26:21;;;;;;;33.28;22.23;;;;;;;;;;6328794;22;20080;-85
2022/09/29 07:28:47;;;;;;;27.08;20.67;;;;;;;;;;6328728;22;20372;-86
2022/09/29 07:31:15;;;;;;;27.45;21.10;;;;;;;;;;6328608;22;20084;-85
2022/09/29 07:33:41;;;;;;;29.10;22.00;;;;;;;;;;6328871;22;20011;-86
2022/09/29 07:36:10;;;;;;;28.80;19.95;;;;;;;;;;6298725;22;20122;-87
2022/09/29 07:38:36;;;;;;;26.55;21.55;;;;;;;;;;6328298;22;20333;-83
2022/09/29 07:41:03;;;;;;;28.50;22.05;;;;;;;;;;6299022;22;20018;-84
2022/09/29 07:43:30;;;;;;;28.38;23.08;;;;;;;;;;6274304;22;20031;-84
2022/09/29 07:45:56;;;;;;;30.90;22.05;;;;;;;;;;6328531;22;20019;-84
2022/09/29 07:48:31;;;;;;;33.13;23.60;;;;;;;;;;6330239;22;20019;-85
2022/09/29 07:51:05;;;;;;;41.40;23.17;;;;;;;;;;6300626;22;20019;-84
2022/09/29 07:53:31;;;;;;;42.47;25.73;;;;;;;;;;6330206;22;20029;-85
2022/09/29 07:56:04;;;;;;;46.83;25.83;;;;;;;;;;6331566;22;20015;-84
2022/09/29 07:58:31;;;;;;;54.33;25.95;;;;;;;;;;6302753;22;20023;-84
2022/09/29 08:00:57;;;;;;;77.30;30.75;;;;;;;;;;6305350;22;20015;-85
2022/09/29 08:03:24;;;;;;;55.72;27.15;;;;;;;;;;6290229;22;20015;-84
2022/09/29 08:05:53;;;;;;;58.53;28.60;;;;;;;;;;6329324;22;20015;-85
2022/09/29 08:08:19;;;;;;;63.75;31.88;;;;;;;;;;6327596;22;20018;-84
2022/09/29 08:10:45;;;;;;;51.63;29.50;;;;;;;;;;6301999;22;20123;-83
2022/09/29 08:13:18;;;;;;;43.15;26.30;;;;;;;;;;6327703;22;20019;-85
2022/09/29 08:15:44;;;;;;;49.35;27.25;;;;;;;;;;6275932;22;20027;-83
2022/09/29 08:18:10;;;;;;;56.20;26.25;;;;;;;;;;6300463;22;20022;-85
2022/09/29 08:20:36;;;;;;;48.22;26.02;;;;;;;;;;6300939;22;20357;-85
2022/09/29 08:23:02;;;;;;;54.53;26.35;;;;;;;;;;6301784;22;20054;-86
2022/09/29 08:25:29;;;;;;;41.33;23.90;;;;;;;;;;6295927;22;20315;-85
2022/09/29 08:27:55;;;;;;;37.60;23.17;;;;;;;;;;6296969;22;20038;-85
2022/09/29 08:30:21;;;;;;;40.60;24.38;;;;;;;;;;6271031;22;20026;-86
2022/09/29 08:32:51;;;;;;;34.40;22.52;;;;;;;;;;6271253;22;20463;-87
2022/09/29 08:35:17;;;;;;;42.20;22.17;;;;;;;;;;6272256;22;20026;-88
2022/09/29 08:37:43;;;;;;;35.55;22.25;;;;;;;;;;6303473;22;20096;-87
2022/09/29 08:40:09;;;;;;;51.83;24.73;;;;;;;;;;6276962;22;20985;-87
2022/09/29 08:43:01;;;;;;;53.75;27.25;;;;;;;;;;6251053;22;20022;-87
2022/09/29 08:45:32;;;;;;;66.65;28.17;;;;;;;;;;6300190;22;20027;-86
2022/09/29 08:48:03;;;;;;;54.92;28.23;;;;;;;;;;6300666;22;20054;-88
2022/09/29 08:50:44;;;;;;;57.97;29.58;;;;;;;;;;6275944;22;20018;-87
2022/09/29 08:53:12;;;;;;;59.25;30.85;;;;;;;;;;6300319;22;20390;-88
2022/09/29 08:55:42;;;;;;;52.38;29.35;;;;;;;;;;6301344;22;20011;-86
2022/09/29 08:58:11;;;;;;;57.33;30.92;;;;;;;;;;6330447;22;20094;-87
2022/09/29 09:00:53;;;;;;;51.78;29.45;;;;;;;;;;6281375;22;20030;-89
2022/09/29 09:03:19;;;;;;;45.17;28.15;;;;;;;;;;6311845;22;20073;-87
2022/09/29 09:06:00;;;;;;;44.17;27.05;;;;;;;;;;6308491;22;20229;-86
2022/09/29 09:08:45;;;;;;;38.15;25.77;;;;;;;;;;6331963;22;20103;-87
2022/09/29 09:11:26;;;;;;;41.65;25.40;;;;;;;;;;6276307;22;20092;-87
2022/09/29 09:13:52;;;;;;;35.33;22.55;;;;;;;;;;6278493;22;20046;-87
2022/09/29 09:16:31;;;;;;;31.92;23.30;;;;;;;;;;6276931;22;20026;-87
2022/09/29 09:18:57;;;;;;;34.25;23.77;;;;;;;;;;6303777;22;20019;-87
2022/09/29 09:21:35;;;;;;;33.08;22.17;;;;;;;;;;6278325;22;20408;-86
2022/09/29 09:24:12;;;;;;;29.48;21.30;;;;;;;;;;6302269;22;20023;-86
2022/09/29 09:29:41;;;;;;;22.13;16.55;;;;;;;;;;6286671;22;20090;-87
2022/09/29 09:32:09;;;;;;;22.63;17.75;;;;;;;;;;6245013;22;20028;-86
2022/09/29 09:34:51;;;;;;;23.58;17.20;;;;;;;;;;6250017;22;20011;-88
2022/09/29 09:37:20;;;;;;;20.85;15.25;;;;;;;;;;6276966;22;20333;-87
2022/09/29 09:40:03;;;;;;;19.73;14.70;;;;;;;;;;6285566;22;20011;-86
2022/09/29 09:42:32;;;;;;;19.67;14.52;;;;;;;;;;6284966;22;20031;-86
2022/09/29 09:45:04;;;;;;;19.35;14.88;;;;;;;;;;6264789;22;20026;-87
2022/09/29 09:47:30;;;;;;;25.35;15.10;;;;;;;;;;6258919;22;20019;-87
2022/09/29 09:49:58;;;;;;;22.98;16.40;;;;;;;;;;6281116;22;20328;-87
2022/09/29 09:52:45;;;;;;;17.15;14.23;;;;;;;;;;6252813;22;20019;-88
2022/09/29 09:55:35;;;;;;;22.25;15.05;;;;;;;;;;6228015;22;20464;-88
2022/09/29 09:58:14;;;;;;;19.88;14.60;;;;;;;;;;6275435;22;20030;-87
2022/09/29 10:01:13;;;;;;;16.88;12.00;;;;;;;;;;6275718;22;20106;-88
2022/09/29 10:03:39;;;;;;;14.60;11.32;;;;;;;;;;6182451;22;20107;-86
2022/09/29 10:06:08;;;;;;;11.50;9.68;;;;;;;;;;6302170;22;20953;-88
2022/09/29 10:08:39;;;;;;;12.98;9.77;;;;;;;;;;6287368;22;20019;-86
2022/09/29 10:11:22;;;;;;;10.25;8.75;;;;;;;;;;6298063;22;20023;-87
2022/09/29 10:13:52;;;;;;;10.48;8.98;;;;;;;;;;6332306;22;20052;-88
2022/09/29 10:16:27;;;;;;;10.32;7.22;;;;;;;;;;6300610;22;20038;-87
2022/09/29 10:19:31;;;;;;;7.65;5.85;;;;;;;;;;6277625;22;20147;-87
2022/09/29 10:22:11;;;;;;;6.45;4.90;;;;;;;;;;6277090;22;20015;-87
2022/09/29 10:24:37;;;;;;;6.68;4.43;;;;;;;;;;6301545;22;20395;-87
2022/09/29 10:27:10;;;;;;;5.72;4.10;;;;;;;;;;6302541;22;20015;-87
2022/09/29 10:29:48;;;;;;;3.53;3.15;;;;;;;;;;6326224;22;20022;-87
2022/09/29 10:33:01;;;;;;;6.80;3.65;;;;;;;;;;6277421;22;20029;-88
2022/09/29 10:35:43;;;;;;;8.60;3.35;;;;;;;;;;6268707;22;20445;-87
2022/09/29 10:38:19;;;;;;;7.10;3.88;;;;;;;;;;6245800;22;20030;-87
2022/09/29 10:41:24;;;;;;;5.10;3.33;;;;;;;;;;6272288;22;20065;-88
2022/09/29 10:43:51;;;;;;;;;;;;;;;;;;6271014;22;20054;-88
2022/09/29 10:46:56;;;;;;;4.55;2.95;;;;;;;;;;6246347;22;19983;-87
2022/09/29 10:49:24;;;;;;;4.30;3.55;;;;;;;;;;6148334;23;20358;-87
2022/09/29 10:51:56;;;;;;;4.78;2.70;;;;;;;;;;6149230;23;20029;-87
2022/09/29 10:54:25;;;;;;;5.88;2.67;;;;;;;;;;6237405;22;20023;-88
2022/09/29 10:57:31;;;;;;;3.65;2.67;;;;;;;;;;6271100;22;20030;-87
2022/09/29 10:59:57;;;;;;;3.97;2.40;;;;;;;;;;6271362;22;20507;-87
2022/09/29 11:02:29;;;;;;;4.10;2.42;;;;;;;;;;6245641;22;20455;-88
2022/09/29 11:04:57;;;;;;;4.00;2.70;;;;;;;;;;6298846;22;20356;-87
2022/09/29 11:07:23;;;;;;;3.28;2.72;;;;;;;;;;6244700;22;20011;-87
2022/09/29 11:09:53;;;;;;;2.25;1.67;;;;;;;;;;6245148;22;20318;-86
2022/09/29 11:12:30;;;;;;;2.67;1.90;;;;;;;;;;6270145;22;20015;-86
2022/09/29 11:14:57;;;;;;;2.72;2.03;;;;;;;;;;6246077;22;20066;-88
2022/09/29 11:17:31;;;;;;;3.63;1.30;;;;;;;;;;6250735;22;20019;-88
2022/09/29 11:19:57;;;;;;;;;;;;;;;;;;6262554;22;20074;-87
2022/09/29 11:22:45;;;;;;;3.40;1.75;;;;;;;;;;6267673;22;19934;-88
2022/09/29 11:25:31;;;;;;;2.58;1.50;;;;;;;;;;6257454;22;20523;-86
2022/09/29 11:28:22;;;;;;;2.92;1.65;;;;;;;;;;6256615;22;20010;-85
2022/09/29 11:31:08;;;;;;;3.70;1.70;;;;;;;;;;6279537;22;20022;-86
2022/09/29 11:34:26;;;;;;;2.58;1.25;;;;;;;;;;6147050;23;20021;-86
2022/09/29 11:37:09;;;;;;;2.25;1.10;;;;;;;;;;6144115;23;20017;-85
2022/09/29 11:39:46;;;;;;;2.50;1.13;;;;;;;;;;6216979;22;20094;-86
2022/09/29 11:42:27;;;;;;;1.65;1.30;;;;;;;;;;6215241;22;20495;-86
2022/09/29 11:44:57;;;;;;;6.30;2.45;;;;;;;;;;6239541;22;20030;-84
2022/09/29 11:47:35;;;;;;;2.08;0.88;;;;;;;;;;6216207;22;20026;-86
2022/09/29 11:50:24;;;;;;;3.47;1.10;;;;;;;;;;6213259;22;20023;-86
2022/09/29 11:52:53;;;;;;;2.65;1.20;;;;;;;;;;6241294;22;20082;-85
2022/09/29 11:55:42;;;;;;;2.40;1.00;;;;;;;;;;6213721;22;20032;-85
2022/09/29 11:58:21;;;;;;;1.83;0.80;;;;;;;;;;6268006;22;20027;-85
2022/09/29 12:00:47;;;;;;;1.00;0.85;;;;;;;;;;6214974;22;20030;-85
2022/09/29 12:03:25;;;;;;;0.85;0.85;;;;;;;;;;6214965;22;20020;-85
2022/09/29 12:06:15;;;;;;;2.85;0.90;;;18.70;99.90;;;;;;6332588;22;20065;-85
2022/09/29 12:09:16;;;;;;;2.22;0.80;;;;;;;;;;6301001;22;20030;-85
2022/09/29 12:11:54;;;;;;;1.27;0.70;;;;;;;;;;6305247;22;20026;-86
2022/09/29 12:14:24;;;;;;;2.10;0.80;;;;;;;;;;6301959;22;20038;-85
2022/09/29 12:17:03;;;;;;;3.08;0.98;;;;;;;;;;6277882;22;20019;-86
2022/09/29 12:19:39;;;;;;;2.08;0.90;;;;;;;;;;6303366;22;20106;-84
2022/09/29 12:22:08;;;;;;;3.72;0.75;;;;;;;;;;6306228;22;20022;-86
2022/09/29 12:25:04;;;;;;;1.75;0.40;;;;;;;;;;6277096;22;20042;-85
2022/09/29 12:27:36;;;;;;;0.35;0.30;;;;;;;;;;6281126;22;20011;-87
2022/09/29 12:30:30;;;;;;;0.45;0.32;;;;;;;;;;6276932;22;20029;-85
2022/09/29 12:42:12;;;;;;;2.10;0.30;;;;;;;;;;6305159;22;20023;-86
2022/09/29 12:45:08;;;;;;;0.63;0.50;;;;;;;;;;6277634;22;20074;-86
2022/09/29 12:47:46;;;;;;;1.05;0.32;;;;;;;;;;6169030;22;20031;-84
2022/09/29 12:50:15;;;;;;;0.52;0.40;;;;;;;;;;6277794;22;20095;-86
2022/09/29 12:53:05;;;;;;;1.00;0.40;;;;;;;;;;6277115;22;20351;-88
2022/09/29 12:58:55;;;;;;;0.98;0.45;;;;;;;;;;6330231;22;20019;-87
2022/09/29 13:01:22;;;;;;;0.40;0.40;;;;;;;;;;6304666;22;20504;-86
2022/09/29 13:03:54;;;;;;;0.82;0.30;;;;;;;;;;6305700;22;20395;-86
2022/09/29 13:06:39;;;;;;;1.08;0.20;;;;;;;;;;6278387;22;20106;-88
2022/09/29 13:09:12;;;;;;;0.60;0.20;;;;;;;;;;6307095;22;20018;-86
2022/09/29 13:11:54;;;;;;;0.93;0.35;;;;;;;;;;6278356;22;20065;-86
2022/09/29 13:14:40;;;;;;;2.50;0.30;;;;;;;;;;6278975;22;20023;-86
2022/09/29 13:17:25;;;;;;;0.98;0.35;;;;;;;;;;6279424;22;20026;-85
2022/09/29 13:20:00;;;;;;;3.42;0.50;;;;;;;;;;6334870;22;20018;-86
2022/09/29 13:22:26;;;;;;;0.57;0.40;;;;;;;;;;6276465;22;20030;-85
2022/09/29 13:24:55;;;;;;;2.92;0.60;;;;;;;;;;6304829;22;20147;-83
2022/09/29 13:27:26;;;;;;;1.02;0.30;;;;;;;;;;6267292;22;20438;-84
2022/09/29 13:29:56;;;;;;;1.77;0.47;;;;;;;;;;6314903;22;20068;-85
2022/09/29 13:32:22;;;;;;;2.70;0.45;;;;;;;;;;6295700;22;20027;-86
2022/09/29 13:35:07;;;;;;;1.65;0.50;;;;;;;;;;6320940;22;20015;-84
2022/09/29 13:37:46;;;;;;;1.85;0.30;;;;;;;;;;6296628;22;20098;-83
2022/09/29 13:40:36;;;;;;;1.25;0.63;;;;;;;;;;6298690;22;20019;-85
2022/09/29 13:43:06;;;;;;;1.48;0.40;;;;;;;;;;6347269;22;20018;-86
2022/09/29 13:45:35;;;;;;;1.23;0.40;;;;;;;;;;6293714;22;20026;-85
2022/09/29 13:48:10;;;;;;;3.13;0.50;;;;;;;;;;6287822;22;20441;-85
2022/09/29 13:50:50;;;;;;;2.13;0.40;;;;;;;;;;6279970;22;20115;-85
2022/09/29 13:53:36;;;;;;;5.05;0.35;;;;;;;;;;6334811;22;20030;-84
2022/09/29 13:56:23;;;;;;;4.22;0.45;;;;;;;;;;6312608;22;20022;-85
2022/09/29 14:05:57;;;;;;;3.78;1.08;;;;;;;;;;6198764;22;20019;-84
2022/09/29 14:08:27;;;;;;;3.60;0.50;;;;;;;;;;6264647;22;20023;-85
2022/09/29 14:11:20;;;;;;;5.50;0.70;;;;;;;;;;6276205;22;20019;-86
2022/09/29 14:13:46;;;;;;;5.10;0.50;;;;;;;;;;6313106;22;20026;-83
2022/09/29 14:16:16;;;;;;;2.28;0.50;;;;;;;;;;6307445;22;20097;-86
2022/09/29 14:18:53;;;;;;;4.10;0.50;;;;;;;;;;6286508;22;20015;-84
2022/09/29 14:21:37;;;;;;;4.43;0.50;;;;;;;;;;6290024;22;20509;-85
2022/09/29 14:24:04;;;;;;;5.03;0.60;;;;;;;;;;6305610;22;20061;-86
2022/09/29 14:26:53;;;;;;;5.75;0.68;;;;;;;;;;6263861;22;20018;-87
2022/09/29 14:29:54;;;;;;;;;;;;;;;;;;;;;
2022/09/29 14:32:50;;;;;;;1.08;0.40;;;;;;;;;;6338190;22;20323;-83
2022/09/29 14:35:33;;;;;;;8.13;0.73;;;;;;;;;;6286197;22;20022;-85
2022/09/29 14:38:16;;;;;;;5.63;0.55;;;;;;;;;;6335591;22;20358;-85
2022/09/29 14:41:10;;;;;;;5.18;0.50;;;;;;;;;;6282797;22;20045;-87
2022/09/29 14:43:39;;;;;;;3.13;0.57;;;;;;;;;;6286791;22;20065;-86
2022/09/29 14:52:48;;;;;;;3.15;0.85;;;;;;;;;;6306040;22;20019;-86
2022/09/29 14:55:26;;;;;;;2.95;0.60;;;;;;;;;;6323596;22;20405;-87
2022/09/29 15:01:35;;;;;;;1.52;0.90;;;;;;;;;;6193546;23;20084;-85
2022/09/29 15:04:04;;;;;;;2.90;0.70;;;;;;;;;;6257159;22;20022;-87
2022/09/29 15:09:25;;;;;;;2.00;0.40;;;;;;;;;;6347354;22;20048;-87
2022/09/29 15:14:43;;;;;;;2.00;0.52;;;;;;;;;;6354882;22;20049;-86
2022/09/29 15:26:38;;;;;;;3.42;1.15;;;;;;;;;;6347038;22;20034;-89
2022/09/29 15:29:08;;;;;;;8.20;1.05;;;;;;;;;;6290641;22;20018;-86
2022/09/29 15:31:53;;;;;;;5.22;0.73;;;13.50;99.90;;;;;;6321436;22;20018;-89
2022/09/29 15:37:19;;;;;;;2.47;0.82;;;;;;;;;;6237004;22;20042;-87
2022/09/29 15:39:52;;;;;;;7.80;0.70;;;;;;;;;;6314922;22;20057;-88
2022/09/29 15:42:24;;;;;;;1.02;0.38;;;;;;;;;;6288766;22;20027;-90
2022/09/29 15:45:08;;;;;;;2.75;0.68;;;;;;;;;;6263395;22;20034;-88
2022/09/29 15:48:06;;;;;;;;;;;12.80;99.90;;;;;;6314666;22;20018;-88
2022/09/29 15:54:22;;;;;;;4.28;1.33;;;;;;;;;;6342631;22;20021;-88
2022/09/29 16:00:22;;;;;;;3.83;2.22;;;;;;;;;;6276359;22;20102;-88